createdAt,value
2023-02-22T00:01:21.940Z,4.65
2023-02-22T00:03:52.691Z,4.70
2023-02-22T00:06:25.860Z,4.00
2023-02-22T00:08:56.452Z,5.53
2023-02-22T00:11:26.038Z,4.22
2023-02-22T00:13:57.438Z,4.30
2023-02-22T00:16:27.877Z,4.60
2023-02-22T00:18:56.693Z,4.00
2023-02-22T00:21:25.737Z,4.47
2023-02-22T00:23:56.734Z,4.88
2023-02-22T00:26:25.798Z,5.28
2023-02-22T00:28:56.449Z,5.15
2023-02-22T00:31:26.492Z,5.68
2023-02-22T00:33:55.267Z,5.00
2023-02-22T00:36:24.457Z,5.65
2023-02-22T00:38:53.247Z,5.70
2023-02-22T00:41:24.007Z,5.70
2023-02-22T00:43:52.865Z,5.53
2023-02-22T00:46:21.936Z,5.90
2023-02-22T00:48:50.748Z,5.90
2023-02-22T00:51:20.134Z,6.93
2023-02-22T00:53:49.616Z,7.88
2023-02-22T00:56:18.716Z,7.35
2023-02-22T00:58:48.877Z,7.70
2023-02-22T01:01:18.417Z,6.75
2023-02-22T01:03:47.579Z,7.30
2023-02-22T01:06:18.789Z,6.50
2023-02-22T01:08:49.441Z,7.18
2023-02-22T01:11:19.829Z,7.50
2023-02-22T01:13:54.160Z,6.72
2023-02-22T01:16:23.733Z,6.47
2023-02-22T01:18:52.675Z,6.78
2023-02-22T01:21:21.910Z,6.85
2023-02-22T01:23:50.761Z,6.57
2023-02-22T01:26:19.922Z,6.68
2023-02-22T01:28:50.157Z,6.75
2023-02-22T01:31:19.783Z,7.47
2023-02-22T01:33:48.826Z,6.65
2023-02-22T01:36:19.021Z,6.45
2023-02-22T01:38:48.404Z,5.85
2023-02-22T01:41:18.759Z,6.32
2023-02-22T01:43:47.637Z,5.85
2023-02-22T01:46:29.784Z,5.75
2023-02-22T01:49:03.465Z,5.05
2023-02-22T01:51:37.871Z,5.00
2023-02-22T01:54:13.640Z,5.35
2023-02-22T01:56:51.212Z,5.30
2023-02-22T01:59:23.618Z,5.18
2023-02-22T02:01:54.101Z,5.38
2023-02-22T02:04:25.872Z,4.97
2023-02-22T02:07:03.950Z,5.80
2023-02-22T02:09:41.198Z,5.72
2023-02-22T02:12:15.135Z,5.50
2023-02-22T02:14:44.594Z,5.45
2023-02-22T02:17:20.154Z,5.72
2023-02-22T02:20:02.940Z,6.15
2023-02-22T02:22:48.293Z,5.45
2023-02-22T02:26:12.039Z,4.18
2023-02-22T02:29:21.227Z,4.15
2023-02-22T02:32:23.145Z,4.38
2023-02-22T02:35:04.852Z,4.40
2023-02-22T02:37:46.331Z,4.82
2023-02-22T02:40:25.713Z,4.25
2023-02-22T02:43:06.859Z,4.68
2023-02-22T02:45:47.487Z,4.78
2023-02-22T02:48:23.179Z,4.70
2023-02-22T02:50:54.804Z,4.30
2023-02-22T02:53:33.911Z,4.00
2023-02-22T02:56:04.191Z,4.05
2023-02-22T02:58:34.127Z,4.07
2023-02-22T03:01:05.473Z,4.47
2023-02-22T03:03:57.431Z,4.05
2023-02-22T03:06:54.948Z,4.43
2023-02-22T03:09:42.369Z,3.97
2023-02-22T03:12:29.536Z,4.90
2023-02-22T03:15:14.421Z,4.63
2023-02-22T03:17:55.480Z,5.40
2023-02-22T03:20:35.125Z,4.30
2023-02-22T03:23:14.394Z,4.67
2023-02-22T03:25:53.215Z,3.70
2023-02-22T03:28:29.061Z,4.25
2023-02-22T03:31:05.566Z,3.95
2023-02-22T03:33:41.637Z,4.57
2023-02-22T03:36:20.941Z,4.68
2023-02-22T03:38:55.625Z,4.75
2023-02-22T03:41:27.951Z,4.70
2023-02-22T03:44:05.782Z,4.30
2023-02-22T03:46:37.510Z,5.17
2023-02-22T03:49:15.868Z,5.10
2023-02-22T03:51:47.060Z,4.85
2023-02-22T03:54:16.923Z,5.32
2023-02-22T03:56:55.465Z,4.97
2023-02-22T03:59:27.747Z,4.25
2023-02-22T04:01:58.313Z,5.80
2023-02-22T04:04:28.087Z,5.93
2023-02-22T04:06:59.464Z,6.25
2023-02-22T04:09:30.063Z,5.50
2023-02-22T04:11:59.440Z,4.97
2023-02-22T04:14:31.698Z,5.55
2023-02-22T04:17:00.889Z,5.43
2023-02-22T04:19:30.336Z,5.30
2023-02-22T04:22:00.907Z,5.25
2023-02-22T04:24:30.677Z,4.38
2023-02-22T04:26:59.942Z,4.72
2023-02-22T04:29:29.476Z,4.22
2023-02-22T04:31:58.284Z,4.82
2023-02-22T04:34:27.355Z,4.00
2023-02-22T04:36:56.412Z,4.40
2023-02-22T04:39:27.109Z,3.78
2023-02-22T04:41:56.383Z,4.07
2023-02-22T04:44:25.531Z,4.40
2023-02-22T04:46:54.379Z,4.55
2023-02-22T04:49:23.457Z,6.13
2023-02-22T04:51:54.004Z,5.90
2023-02-22T04:54:29.620Z,5.25
2023-02-22T04:56:58.854Z,5.35
2023-02-22T04:59:28.243Z,4.63
2023-02-22T05:02:02.479Z,4.70
2023-02-22T05:04:31.688Z,4.90
2023-02-22T05:07:00.572Z,4.70
2023-02-22T05:09:31.025Z,4.20
2023-02-22T05:11:59.774Z,3.90
2023-02-22T05:14:28.834Z,3.72
2023-02-22T05:16:59.088Z,3.38
2023-02-22T05:19:28.197Z,3.40
2023-02-22T05:21:57.712Z,2.65
2023-02-22T05:24:26.858Z,2.83
2023-02-22T05:26:56.987Z,3.08
2023-02-22T05:29:26.133Z,2.85
2023-02-22T05:31:55.044Z,2.60
2023-02-22T05:34:24.122Z,2.40
2023-02-22T05:36:53.051Z,2.60
2023-02-22T05:39:22.113Z,2.45
2023-02-22T05:41:51.317Z,2.53
2023-02-22T05:44:22.053Z,2.70
2023-02-22T05:46:50.910Z,3.17
2023-02-22T05:49:20.060Z,3.45
2023-02-22T05:51:48.864Z,2.63
2023-02-22T05:54:18.117Z,2.95
2023-02-22T05:56:48.010Z,3.38
2023-02-22T05:59:17.092Z,3.30
2023-02-22T06:01:47.375Z,3.58
2023-02-22T06:04:16.487Z,3.72
2023-02-22T06:06:45.872Z,2.97
2023-02-22T06:09:14.887Z,4.28
2023-02-22T06:11:43.707Z,3.38
2023-02-22T06:14:12.766Z,3.83
2023-02-22T06:16:41.581Z,3.45
2023-02-22T06:19:12.063Z,3.63
2023-02-22T06:21:42.052Z,3.42
2023-02-22T06:24:12.083Z,3.50
2023-02-22T06:26:40.838Z,4.03
2023-02-22T06:29:09.882Z,4.30
2023-02-22T06:31:38.779Z,3.55
2023-02-22T06:34:07.856Z,4.18
2023-02-22T06:36:38.056Z,3.80
2023-02-22T06:39:07.102Z,3.80
2023-02-22T06:41:39.268Z,4.18
2023-02-22T06:44:08.432Z,4.97
2023-02-22T06:46:37.493Z,4.55
2023-02-22T06:49:07.280Z,4.85
2023-02-22T06:51:39.174Z,4.47
2023-02-22T06:54:08.253Z,5.15
2023-02-22T06:56:37.037Z,5.90
2023-02-22T06:59:06.235Z,5.35
2023-02-22T07:01:35.178Z,5.63
2023-02-22T07:04:04.876Z,5.10
2023-02-22T07:06:33.699Z,5.60
2023-02-22T07:09:04.970Z,4.90
2023-02-22T07:11:33.900Z,5.32
2023-02-22T07:14:02.978Z,5.43
2023-02-22T07:16:31.833Z,5.22
2023-02-22T07:19:01.512Z,3.95
2023-02-22T07:21:31.414Z,4.60
2023-02-22T07:24:00.716Z,3.00
2023-02-22T07:26:30.953Z,3.00
2023-02-22T07:29:00.030Z,2.45
2023-02-22T07:31:29.702Z,2.80
2023-02-22T07:33:58.884Z,2.90
2023-02-22T07:36:27.756Z,3.00
2023-02-22T07:38:56.835Z,3.00
2023-02-22T07:41:26.645Z,2.90
2023-02-22T07:43:57.103Z,2.90
2023-02-22T07:46:25.859Z,3.70
2023-02-22T07:48:54.930Z,3.30
2023-02-22T07:51:24.003Z,4.25
2023-02-22T07:53:53.078Z,3.90
2023-02-22T07:56:21.908Z,3.65
2023-02-22T07:58:51.061Z,3.88
2023-02-22T08:01:21.189Z,3.42
2023-02-22T08:03:50.328Z,3.42
2023-02-22T08:06:20.981Z,3.47
2023-02-22T08:08:50.102Z,3.88
2023-02-22T08:11:19.296Z,3.65
2023-02-22T08:13:48.472Z,3.92
2023-02-22T08:16:18.385Z,3.22
2023-02-22T08:18:48.904Z,2.90
2023-02-22T08:21:18.703Z,3.10
2023-02-22T08:23:54.622Z,3.40
2023-02-22T08:26:25.441Z,3.50
2023-02-22T08:28:54.659Z,3.33
2023-02-22T08:31:23.506Z,2.42
2023-02-22T08:33:53.968Z,2.63
2023-02-22T08:36:22.788Z,2.65
2023-02-22T08:38:51.836Z,2.65
2023-02-22T08:41:20.640Z,2.47
2023-02-22T08:43:49.733Z,2.55
2023-02-22T08:46:18.944Z,2.72
2023-02-22T08:48:53.700Z,2.75
2023-02-22T08:51:22.994Z,3.08
2023-02-22T08:53:54.833Z,2.60
2023-02-22T08:56:24.319Z,2.67
2023-02-22T08:58:53.364Z,2.95
2023-02-22T09:01:32.629Z,3.33
2023-02-22T09:04:03.907Z,3.35
2023-02-22T09:06:32.991Z,3.08
2023-02-22T09:09:02.235Z,3.17
2023-02-22T09:11:31.084Z,2.75
2023-02-22T09:14:00.123Z,2.90
2023-02-22T09:16:29.259Z,3.13
2023-02-22T09:18:58.391Z,2.90
2023-02-22T09:21:29.269Z,2.92
2023-02-22T09:23:58.552Z,3.45
2023-02-22T09:26:27.897Z,3.22
2023-02-22T09:28:56.951Z,2.70
2023-02-22T09:31:25.862Z,2.67
2023-02-22T09:33:54.944Z,3.13
2023-02-22T09:36:26.112Z,2.53
2023-02-22T09:38:58.897Z,2.78
2023-02-22T09:41:36.276Z,3.20
2023-02-22T09:44:24.012Z,3.42
2023-02-22T09:46:56.223Z,2.80
2023-02-22T09:49:33.589Z,3.67
2023-02-22T09:52:11.577Z,3.45
2023-02-22T09:54:51.849Z,3.58
2023-02-22T09:57:32.077Z,3.67
2023-02-22T10:00:13.634Z,3.50
2023-02-22T10:03:00.225Z,3.17
2023-02-22T10:05:37.677Z,3.22
2023-02-22T10:08:13.062Z,3.15
2023-02-22T10:10:46.546Z,3.00
2023-02-22T10:13:29.996Z,3.22
2023-02-22T10:16:10.860Z,3.50
2023-02-22T10:19:32.422Z,4.70
2023-02-22T10:22:33.322Z,3.78
2023-02-22T10:25:09.569Z,2.90
2023-02-22T10:27:47.883Z,2.85
2023-02-22T10:30:25.658Z,3.10
2023-02-22T10:33:06.470Z,3.58
2023-02-22T10:35:41.162Z,3.25
2023-02-22T10:38:20.306Z,3.00
2023-02-22T10:40:57.896Z,3.20
2023-02-22T10:43:28.764Z,3.17
2023-02-22T10:46:02.868Z,3.88
2023-02-22T10:48:37.756Z,4.03
2023-02-22T10:51:10.486Z,3.88
2023-02-22T10:53:40.515Z,7.38
2023-02-22T10:56:16.003Z,4.40
2023-02-22T10:58:52.789Z,3.90
2023-02-22T11:01:35.440Z,4.68
2023-02-22T11:04:13.574Z,5.03
2023-02-22T11:06:46.508Z,4.82
2023-02-22T11:09:19.018Z,5.35
2023-02-22T11:11:50.735Z,4.90
2023-02-22T11:14:31.073Z,5.00
2023-02-22T11:17:02.751Z,5.10
2023-02-22T11:19:34.400Z,5.70
2023-02-22T11:22:15.906Z,5.22
2023-02-22T11:27:31.731Z,5.28
2023-02-22T11:30:22.840Z,5.18
2023-02-22T11:32:59.237Z,4.97
2023-02-22T11:35:41.390Z,5.63
2023-02-22T11:38:21.250Z,5.40
2023-02-22T11:41:18.523Z,10.80
2023-02-22T11:43:50.360Z,6.63
2023-02-22T11:46:23.653Z,7.90
2023-02-22T11:49:02.292Z,7.57
2023-02-22T11:51:52.927Z,6.03
2023-02-22T11:54:43.531Z,6.35
2023-02-22T11:57:32.046Z,5.40
2023-02-22T12:00:24.757Z,6.28
2023-02-22T12:03:19.834Z,5.43
2023-02-22T12:06:19.631Z,6.03
2023-02-22T12:09:07.825Z,5.72
2023-02-22T12:11:50.370Z,5.38
2023-02-22T12:14:34.187Z,5.50
2023-02-22T12:17:27.314Z,6.75
2023-02-22T12:20:07.663Z,11.38
2023-02-22T12:22:43.483Z,8.68
2023-02-22T12:25:23.864Z,5.50
2023-02-22T12:27:59.041Z,5.43
2023-02-22T12:30:34.143Z,5.90
2023-02-22T12:33:13.300Z,5.20
2023-02-22T12:35:51.470Z,5.43
2023-02-22T12:38:26.522Z,5.00
2023-02-22T12:41:05.024Z,5.00
2023-02-22T12:43:41.800Z,4.60
2023-02-22T12:46:18.637Z,5.30
2023-02-22T12:48:55.372Z,5.53
2023-02-22T12:51:35.942Z,5.22
2023-02-22T12:54:17.506Z,5.38
2023-02-22T12:56:55.739Z,5.28
2023-02-22T12:59:33.854Z,4.82
2023-02-22T13:02:15.688Z,4.72
2023-02-22T13:04:44.789Z,5.50
2023-02-22T13:07:34.291Z,6.50
2023-02-22T13:10:52.031Z,5.55
2023-02-22T13:13:30.309Z,3.70
2023-02-22T13:16:14.720Z,4.13
2023-02-22T13:18:54.367Z,4.65
2023-02-22T13:21:38.226Z,4.15
2023-02-22T13:24:24.344Z,4.72
2023-02-22T13:27:00.369Z,4.20
2023-02-22T13:29:37.949Z,5.15
2023-02-22T13:32:39.311Z,4.88
2023-02-22T13:35:35.136Z,4.80
2023-02-22T13:38:30.454Z,4.60
2023-02-22T13:41:44.612Z,4.25
2023-02-22T13:44:57.308Z,4.25
2023-02-22T13:48:25.551Z,4.63
2023-02-22T13:51:10.277Z,4.05
2023-02-22T13:53:50.510Z,4.57
2023-02-22T13:56:23.639Z,4.43
2023-02-22T13:58:56.529Z,4.35
2023-02-22T14:01:48.083Z,4.80
2023-02-22T14:04:44.310Z,5.88
2023-02-22T14:07:51.361Z,4.82
2023-02-22T14:10:48.571Z,3.88
2023-02-22T14:13:22.642Z,3.55
2023-02-22T14:16:25.933Z,3.60
2023-02-22T14:19:06.564Z,4.18
2023-02-22T14:21:36.887Z,4.10
2023-02-22T14:24:13.576Z,3.83
2023-02-22T14:26:59.403Z,3.72
2023-02-22T14:29:29.937Z,3.90
2023-02-22T14:32:07.606Z,4.00
2023-02-22T14:34:48.767Z,4.20
2023-02-22T14:37:22.036Z,4.38
2023-02-22T14:39:58.369Z,5.35
2023-02-22T14:42:35.832Z,4.93
2023-02-22T14:45:21.844Z,3.60
2023-02-22T14:48:04.023Z,3.63
2023-02-22T14:50:48.778Z,3.80
2023-02-22T14:53:28.407Z,3.80
2023-02-22T14:56:03.467Z,3.58
2023-02-22T14:58:41.985Z,3.40
2023-02-22T15:01:47.488Z,4.20
2023-02-22T15:04:26.858Z,4.22
2023-02-22T15:06:58.151Z,4.13
2023-02-22T15:09:32.871Z,3.75
2023-02-22T15:12:22.225Z,3.97
2023-02-22T15:14:51.778Z,3.25
2023-02-22T15:17:27.164Z,3.15
2023-02-22T15:19:56.941Z,3.70
2023-02-22T15:22:31.081Z,3.88
2023-02-22T15:25:03.349Z,3.40
2023-02-22T15:27:36.852Z,4.22
2023-02-22T15:30:10.781Z,4.78
2023-02-22T15:32:56.998Z,5.22
2023-02-22T15:35:34.594Z,4.63
2023-02-22T15:38:07.535Z,5.60
2023-02-22T15:40:42.968Z,3.97
2023-02-22T15:43:24.172Z,4.22
2023-02-22T15:45:54.232Z,4.65
2023-02-22T15:48:26.353Z,4.68
2023-02-22T15:51:12.446Z,4.93
2023-02-22T15:53:47.954Z,5.68
2023-02-22T15:56:26.497Z,5.93
2023-02-22T15:59:04.689Z,6.68
2023-02-22T16:01:42.087Z,5.60
2023-02-22T16:04:20.864Z,5.68
2023-02-22T16:06:52.385Z,6.13
2023-02-22T16:09:26.248Z,6.40
2023-02-22T16:12:10.734Z,5.30
2023-02-22T16:14:46.131Z,5.43
2023-02-22T16:17:36.443Z,4.88
2023-02-22T16:20:37.310Z,4.10
2023-02-22T16:23:25.429Z,4.75
2023-02-22T16:26:19.437Z,5.05
2023-02-22T16:28:52.450Z,4.93
2023-02-22T16:31:25.307Z,5.63
2023-02-22T16:33:55.910Z,5.35
2023-02-22T16:36:40.133Z,4.50
2023-02-22T16:39:19.055Z,4.65
2023-02-22T16:41:48.080Z,4.00
2023-02-22T16:44:17.409Z,4.60
2023-02-22T16:46:46.399Z,4.00
2023-02-22T16:49:15.859Z,4.80
2023-02-22T16:51:50.661Z,4.57
2023-02-22T16:54:26.640Z,4.93
2023-02-22T16:57:02.054Z,5.03
2023-02-22T16:59:37.407Z,5.00
2023-02-22T17:02:08.335Z,5.07
2023-02-22T17:04:37.416Z,4.20
2023-02-22T17:07:09.370Z,4.63
2023-02-22T17:09:39.577Z,5.07
2023-02-22T17:12:09.707Z,4.28
2023-02-22T17:14:41.004Z,4.72
2023-02-22T17:17:12.213Z,4.80
2023-02-22T17:19:41.275Z,5.30
2023-02-22T17:22:19.550Z,6.50
2023-02-22T17:24:49.076Z,6.07
2023-02-22T17:27:17.869Z,5.43
2023-02-22T17:29:47.970Z,5.20
2023-02-22T17:32:17.333Z,5.15
2023-02-22T17:34:46.442Z,5.10
2023-02-22T17:37:16.589Z,5.07
2023-02-22T17:39:45.655Z,5.03
2023-02-22T17:42:15.618Z,5.20
2023-02-22T17:44:44.675Z,5.30
2023-02-22T17:47:13.481Z,5.30
2023-02-22T17:49:44.231Z,5.50
2023-02-22T17:52:15.672Z,5.40
2023-02-22T17:54:46.195Z,4.80
2023-02-22T17:57:15.418Z,5.40
2023-02-22T17:59:44.494Z,5.60
2023-02-22T18:02:13.411Z,5.23
2023-02-22T18:04:42.462Z,5.20
2023-02-22T18:07:13.234Z,5.60
2023-02-22T18:09:42.972Z,6.00
2023-02-22T18:12:13.580Z,6.32
2023-02-22T18:14:42.725Z,7.43
2023-02-22T18:17:11.526Z,7.20
2023-02-22T18:19:41.748Z,7.30
2023-02-22T18:22:10.547Z,7.03
2023-02-22T18:24:39.660Z,7.25
2023-02-22T18:27:08.538Z,7.18
2023-02-22T18:29:39.056Z,7.63
2023-02-22T18:32:12.648Z,8.02
2023-02-22T18:34:42.367Z,7.80
2023-02-22T18:37:11.279Z,7.37
2023-02-22T18:39:42.938Z,7.90
2023-02-22T18:42:14.665Z,8.20
2023-02-22T18:44:45.109Z,8.20
2023-02-22T18:47:13.856Z,8.03
2023-02-22T18:49:43.057Z,8.35
2023-02-22T18:52:12.229Z,7.63
2023-02-22T18:54:42.979Z,7.15
2023-02-22T18:57:13.810Z,6.90
2023-02-22T18:59:44.920Z,6.87
2023-02-22T19:02:15.905Z,5.97
2023-02-22T19:04:45.162Z,5.85
2023-02-22T19:07:17.995Z,5.53
2023-02-22T19:09:51.070Z,6.43
2023-02-22T19:12:20.568Z,6.30
2023-02-22T19:14:50.995Z,6.53
2023-02-22T19:17:21.544Z,6.22
2023-02-22T19:19:50.701Z,6.43
2023-02-22T19:22:19.478Z,6.45
2023-02-22T19:24:48.578Z,6.03
2023-02-22T19:27:17.363Z,6.70
2023-02-22T19:29:47.686Z,6.28
2023-02-22T19:32:19.397Z,6.38
2023-02-22T19:34:48.544Z,6.32
2023-02-22T19:37:18.803Z,5.53
2023-02-22T19:39:47.912Z,5.35
2023-02-22T19:42:16.685Z,4.97
2023-02-22T19:44:45.773Z,5.03
2023-02-22T19:47:14.623Z,4.85
2023-02-22T19:49:45.123Z,5.30
2023-02-22T19:52:13.932Z,5.63
2023-02-22T19:54:44.524Z,6.20
2023-02-22T19:57:13.467Z,5.28
2023-02-22T19:59:42.655Z,4.57
2023-02-22T20:02:13.028Z,4.65
2023-02-22T20:04:42.226Z,5.50
2023-02-22T20:07:12.584Z,5.70
2023-02-22T20:09:43.203Z,6.47
2023-02-22T20:12:12.115Z,5.30
2023-02-22T20:14:41.212Z,4.40
2023-02-22T20:17:10.334Z,4.90
2023-02-22T20:19:40.667Z,3.93
2023-02-22T20:22:11.602Z,4.40
2023-02-22T20:24:40.820Z,5.13
2023-02-22T20:27:09.728Z,5.10
2023-02-22T20:29:38.848Z,4.97
2023-02-22T20:32:11.492Z,4.18
2023-02-22T20:34:40.671Z,4.50
2023-02-22T20:37:09.471Z,4.68
2023-02-22T20:39:40.313Z,4.47
2023-02-22T20:42:10.929Z,5.18
2023-02-22T20:44:40.109Z,5.03
2023-02-22T20:47:09.064Z,4.53
2023-02-22T20:49:38.347Z,4.63
2023-02-22T20:52:07.392Z,5.00
2023-02-22T20:54:38.032Z,4.80
2023-02-22T20:57:08.748Z,5.20
2023-02-22T20:59:37.954Z,5.10
2023-02-22T21:02:07.529Z,5.20
2023-02-22T21:04:36.650Z,5.03
2023-02-22T21:07:05.482Z,5.43
2023-02-22T21:09:34.557Z,5.00
2023-02-22T21:12:04.293Z,5.70
2023-02-22T21:14:34.872Z,5.38
2023-02-22T21:17:04.650Z,5.38
2023-02-22T21:19:33.898Z,5.90
2023-02-22T21:22:08.207Z,5.60
2023-02-22T21:24:38.026Z,6.55
2023-02-22T21:27:07.037Z,6.50
2023-02-22T21:29:37.683Z,5.50
2023-02-22T21:32:08.725Z,5.85
2023-02-22T21:34:39.686Z,5.97
2023-02-22T21:37:08.625Z,5.97
2023-02-22T21:39:37.712Z,5.60
2023-02-22T21:42:07.606Z,6.10
2023-02-22T21:44:38.212Z,5.82
2023-02-22T21:47:07.514Z,6.28
2023-02-22T21:49:38.092Z,6.43
2023-02-22T21:52:07.872Z,5.50
2023-02-22T21:54:37.249Z,5.77
2023-02-22T21:57:06.902Z,5.57
2023-02-22T21:59:39.440Z,5.83
2023-02-22T22:02:11.206Z,5.67
2023-02-22T22:04:40.312Z,5.90
2023-02-22T22:07:09.110Z,5.80
2023-02-22T22:09:41.353Z,5.13
2023-02-22T22:12:11.738Z,5.10
2023-02-22T22:14:42.768Z,6.27
2023-02-22T22:17:13.152Z,6.00
2023-02-22T22:19:44.476Z,5.90
2023-02-22T22:22:13.423Z,6.07
2023-02-22T22:24:45.841Z,6.07
2023-02-22T22:27:15.106Z,5.90
2023-02-22T22:29:45.573Z,6.07
2023-02-22T22:32:14.479Z,5.60
2023-02-22T22:34:43.646Z,5.00
2023-02-22T22:37:13.280Z,5.23
2023-02-22T22:39:42.516Z,5.17
2023-02-22T22:42:11.545Z,5.55
2023-02-22T22:44:42.274Z,4.80
2023-02-22T22:47:13.718Z,5.43
2023-02-22T22:49:43.019Z,4.80
2023-02-22T22:52:14.587Z,5.87
2023-02-22T22:54:44.777Z,5.83
2023-02-22T22:57:13.743Z,6.10
2023-02-22T22:59:43.139Z,6.67
2023-02-22T23:02:13.337Z,5.80
2023-02-22T23:04:42.428Z,5.53
2023-02-22T23:07:11.195Z,5.50
2023-02-22T23:09:42.251Z,5.57
2023-02-22T23:12:16.947Z,5.40
2023-02-22T23:14:47.091Z,5.80
2023-02-22T23:17:31.460Z,5.60
2023-02-22T23:20:00.934Z,5.33
2023-02-22T23:22:29.828Z,5.50
2023-02-22T23:25:00.964Z,5.30
2023-02-22T23:27:30.360Z,5.43
2023-02-22T23:29:59.462Z,5.17
2023-02-22T23:32:29.625Z,5.70
2023-02-22T23:34:58.716Z,5.50
2023-02-22T23:37:27.541Z,5.30
2023-02-22T23:39:56.591Z,5.30
2023-02-22T23:42:25.351Z,6.03
2023-02-22T23:44:54.431Z,5.60
2023-02-22T23:47:23.257Z,5.43
2023-02-22T23:49:54.598Z,5.80
2023-02-22T23:52:24.887Z,5.67
2023-02-22T23:54:54.569Z,6.20
2023-02-22T23:57:24.729Z,5.83
2023-02-22T23:59:53.821Z,5.30
